Time;durP1;ratioP1;P1;durP2;ratioP2;P2;SDS_P1;SDS_P2;PMS_P1;PMS_P2;Temp;Humidity;BMP_temperature;BMP_pressure;BME280_temperature;BME280_humidity;BME280_pressure;Samples;Min_cycle;Max_cycle;Signal;HPM_P1;HPM_P2
2022/01/16 00:00:10;;;;;;;11.37;9.30;;;6.20;99.90;;;;;;5059620;28;20440;-39
2022/01/16 00:05:37;;;;;;;13.03;10.07;;;6.40;99.90;;;;;;5062728;28;20435;-39
2022/01/16 00:08:03;;;;;;;12.20;10.50;;;6.40;99.90;;;;;;5068524;28;20496;-39
2022/01/16 00:10:29;;;;;;;13.60;10.07;;;6.10;99.90;;;;;;5068239;28;20593;-39
2022/01/16 00:12:59;;;;;;;13.47;10.83;;;6.00;99.90;;;;;;5068639;28;20809;-39
2022/01/16 00:15:25;;;;;;;13.73;10.40;;;5.70;99.90;;;;;;5070044;28;20189;-39
2022/01/16 00:18:09;;;;;;;15.83;11.00;;;5.50;99.90;;;;;;5068688;28;20772;-39
2022/01/16 00:20:35;;;;;;;15.23;10.60;;;5.50;99.90;;;;;;5067092;28;20434;-41
2022/01/16 00:23:08;;;;;;;14.80;11.40;;;5.40;99.90;;;;;;5068488;28;20419;-39
2022/01/16 00:25:34;;;;;;;13.40;10.30;;;5.30;99.90;;;;;;5068533;28;20423;-43
2022/01/16 00:28:00;;;;;;;13.97;9.97;;;5.40;99.90;;;;;;5067970;28;20815;-39
2022/01/16 00:30:25;;;;;;;14.63;10.50;;;5.40;99.90;;;;;;5080159;28;20189;-43
2022/01/16 00:32:51;;;;;;;14.00;10.93;;;5.60;99.90;;;;;;5066160;28;20233;-39
2022/01/16 00:35:17;;;;;;;12.60;9.43;;;5.80;99.90;;;;;;5068300;28;20269;-39
2022/01/16 00:37:42;;;;;;;12.07;9.33;;;5.70;99.90;;;;;;5068209;28;20221;-39
2022/01/16 00:40:10;;;;;;;12.67;10.10;;;5.80;99.90;;;;;;5067489;28;20287;-39
2022/01/16 00:42:36;;;;;;;14.77;10.70;;;6.00;99.90;;;;;;5067940;28;20193;-42
2022/01/16 00:45:02;;;;;;;13.47;9.53;;;6.00;99.90;;;;;;5060910;28;20425;-43
2022/01/16 00:47:29;;;;;;;11.50;8.90;;;5.90;99.90;;;;;;5065982;28;20509;-40
2022/01/16 00:49:55;;;;;;;11.13;8.87;;;6.00;99.90;;;;;;5067328;28;20427;-40
2022/01/16 00:52:20;;;;;;;13.10;8.93;;;5.70;99.90;;;;;;5066525;28;20427;-38
2022/01/16 00:54:46;;;;;;;13.03;10.30;;;5.60;99.90;;;;;;5067907;28;20203;-44
2022/01/16 00:57:12;;;;;;;12.97;9.33;;;5.50;99.90;;;;;;5067309;28;20196;-41
2022/01/16 00:59:37;;;;;;;14.27;10.40;;;5.20;99.90;;;;;;5063370;28;20272;-39
2022/01/16 01:02:03;;;;;;;13.83;9.60;;;5.00;99.90;;;;;;5055824;28;20214;-38
2022/01/16 01:04:29;;;;;;;11.10;8.87;;;5.00;99.90;;;;;;5067726;28;20181;-39
2022/01/16 01:06:55;;;;;;;11.77;9.03;;;4.70;99.90;;;;;;5067730;28;20552;-39
2022/01/16 01:09:21;;;;;;;12.17;8.77;;;4.70;99.90;;;;;;5067611;28;20258;-38
2022/01/16 01:11:49;;;;;;;14.13;10.13;;;4.50;99.90;;;;;;5066101;28;20411;-39
2022/01/16 01:14:25;;;;;;;12.47;9.17;;;4.60;99.90;;;;;;5076523;28;20426;-39
2022/01/16 01:16:57;;;;;;;11.63;8.70;;;4.60;99.90;;;;;;5056649;28;20427;-41
2022/01/16 01:19:32;;;;;;;11.40;8.40;;;5.00;99.90;;;;;;5067558;28;20496;-39
2022/01/16 01:21:58;;;;;;;12.40;9.40;;;5.10;99.90;;;;;;5065934;28;20511;-40
2022/01/16 01:24:25;;;;;;;13.00;9.23;;;4.80;99.90;;;;;;5067715;28;20453;-40
2022/01/16 01:27:01;;;;;;;13.80;9.23;;;4.60;99.90;;;;;;5067125;28;20422;-38
2022/01/16 01:29:29;;;;;;;12.50;8.30;;;4.90;99.90;;;;;;5067565;28;20407;-38
2022/01/16 01:31:56;;;;;;;11.97;8.57;;;4.80;99.90;;;;;;5057333;28;20428;-40
2022/01/16 01:34:22;;;;;;;12.90;8.30;;;4.90;99.90;;;;;;5067230;28;20595;-38
2022/01/16 01:36:49;;;;;;;12.27;8.10;;;4.90;99.90;;;;;;5066885;28;20407;-38
2022/01/16 01:39:20;;;;;;;14.47;10.00;;;4.90;99.90;;;;;;5061143;28;20469;-39
2022/01/16 01:41:49;;;;;;;15.57;10.67;;;4.80;99.90;;;;;;5058811;28;20424;-40
2022/01/16 01:52:28;;;;;;;14.73;10.40;;;4.50;99.90;;;;;;5066778;28;20415;-39
2022/01/16 01:54:54;;;;;;;12.83;10.07;;;4.40;99.90;;;;;;5067530;28;20809;-38
2022/01/16 01:57:20;;;;;;;17.43;11.17;;;4.50;99.90;;;;;;5066925;28;20569;-38
2022/01/16 01:59:47;;;;;;;14.73;10.30;;;4.50;99.90;;;;;;5066708;28;20641;-38
2022/01/16 02:02:13;;;;;;;17.30;10.33;;;4.50;99.90;;;;;;5062675;28;20522;-38
2022/01/16 02:04:39;;;;;;;16.40;10.90;;;4.60;99.90;;;;;;5067070;28;20872;-39
2022/01/16 02:07:04;;;;;;;18.67;11.53;;;4.20;99.90;;;;;;5067308;28;20204;-39
2022/01/16 02:09:32;;;;;;;15.03;11.30;;;4.10;99.90;;;;;;5066923;28;20195;-39
2022/01/16 02:11:59;;;;;;;18.03;11.20;;;4.40;99.90;;;;;;5066958;28;20339;-38
2022/01/16 02:14:45;;;;;;;15.33;10.77;;;4.30;99.90;;;;;;5077434;28;20427;-38
2022/01/16 02:28:42;;;;;;;15.50;10.23;;;4.20;99.90;;;;;;5070983;28;20725;-41
2022/01/16 02:31:17;;;;;;;17.20;11.30;;;4.30;99.90;;;;;;5062728;28;20478;-39
2022/01/16 02:36:31;;;;;;;15.27;11.27;;;4.20;99.90;;;;;;5070894;28;20441;-39
2022/01/16 02:39:11;;;;;;;18.90;12.50;;;4.10;99.90;;;;;;5070566;28;20482;-38
2022/01/16 02:41:37;;;;;;;16.70;11.50;;;4.30;99.90;;;;;;5057381;28;20423;-38
2022/01/16 02:44:12;;;;;;;20.23;12.90;;;4.20;99.90;;;;;;5070472;28;20502;-39
2022/01/16 02:46:39;;;;;;;18.57;12.03;;;4.10;99.90;;;;;;5064172;28;20924;-38
2022/01/16 02:49:16;;;;;;;18.10;12.77;;;4.50;99.90;;;;;;5070580;28;20929;-38
2022/01/16 02:51:41;;;;;;;18.30;12.60;;;4.20;99.90;;;;;;5070038;28;20522;-38
2022/01/16 02:54:07;;;;;;;17.60;12.63;;;4.30;99.90;;;;;;5070292;28;20541;-40
2022/01/16 02:56:35;;;;;;;19.90;13.13;;;4.30;99.90;;;;;;5070301;28;20213;-40
2022/01/16 02:59:01;;;;;;;19.03;12.33;;;4.30;99.90;;;;;;5070531;28;20220;-39
2022/01/16 03:01:26;;;;;;;19.27;13.30;;;4.40;99.90;;;;;;5060314;28;20993;-39
2022/01/16 03:03:52;;;;;;;22.73;14.10;;;4.30;99.90;;;;;;5070361;28;20426;-38
2022/01/16 03:06:18;;;;;;;24.40;15.50;;;4.40;99.90;;;;;;5069920;28;20193;-38
2022/01/16 03:08:43;;;;;;;24.90;15.43;;;4.70;99.90;;;;;;5070276;28;20271;-39
2022/01/16 03:11:21;;;;;;;22.40;14.77;;;4.70;99.90;;;;;;5069532;28;20632;-39
2022/01/16 03:13:49;;;;;;;25.07;15.30;;;4.60;99.90;;;;;;5070009;28;20429;-38
2022/01/16 03:16:20;;;;;;;25.40;16.67;;;4.80;99.90;;;;;;5061565;28;20794;-38
2022/01/16 03:24:15;;;;;;;23.57;16.17;;;4.70;99.90;;;;;;5069925;28;20921;-39
2022/01/16 03:26:41;;;;;;;28.17;18.53;;;4.70;99.90;;;;;;5069641;28;20430;-38
2022/01/16 03:29:07;;;;;;;26.83;17.30;;;4.30;99.90;;;;;;5069913;28;20567;-38
2022/01/16 03:31:32;;;;;;;28.47;17.23;;;4.30;99.90;;;;;;5063472;28;20475;-39
2022/01/16 03:33:58;;;;;;;29.70;18.00;;;4.10;99.90;;;;;;5062922;28;20459;-39
2022/01/16 03:36:24;;;;;;;28.20;19.47;;;4.10;99.90;;;;;;5069518;28;20197;-38
2022/01/16 03:38:50;;;;;;;32.33;18.70;;;4.30;99.90;;;;;;5069559;28;20301;-39
2022/01/16 03:41:15;;;;;;;29.43;19.13;;;3.90;99.90;;;;;;5069294;28;20462;-39
2022/01/16 03:43:41;;;;;;;36.47;20.57;;;4.10;99.90;;;;;;5069146;28;20188;-38
2022/01/16 03:46:07;;;;;;;30.87;19.33;;;4.10;99.90;;;;;;5064160;28;20717;-39
2022/01/16 03:48:32;;;;;;;33.90;21.00;;;4.50;99.90;;;;;;5063129;28;20709;-38
2022/01/16 03:50:58;;;;;;;32.13;20.40;;;4.40;99.90;;;;;;5068778;28;20660;-39
2022/01/16 03:53:24;;;;;;;34.50;22.00;;;4.30;99.90;;;;;;5069217;28;20203;-38
2022/01/16 03:55:49;;;;;;;34.03;21.60;;;4.40;99.90;;;;;;5069296;28;20566;-38
2022/01/16 03:58:15;;;;;;;32.37;21.13;;;4.50;99.90;;;;;;5068914;28;20232;-39
2022/01/16 04:00:41;;;;;;;35.07;23.20;;;4.60;99.90;;;;;;5068112;28;20197;-39
2022/01/16 04:03:07;;;;;;;33.13;21.57;;;4.60;99.90;;;;;;5059665;28;20431;-38
2022/01/16 04:05:33;;;;;;;31.73;21.90;;;4.60;99.90;;;;;;5069358;28;20423;-38
2022/01/16 04:08:01;;;;;;;32.30;21.93;;;4.50;99.90;;;;;;5068905;28;20181;-38
2022/01/16 04:10:27;;;;;;;37.40;22.50;;;4.50;99.90;;;;;;5068520;28;20213;-38
2022/01/16 04:12:52;;;;;;;37.40;22.73;;;4.50;99.90;;;;;;5068745;28;20470;-38
2022/01/16 04:17:45;;;;;;;35.37;21.50;;;4.50;99.90;;;;;;5060815;28;20217;-38
2022/01/16 04:20:16;;;;;;;38.13;23.33;;;4.60;99.90;;;;;;5067672;28;20205;-38
2022/01/16 04:22:43;;;;;;;33.47;22.53;;;4.60;99.90;;;;;;5068918;28;20431;-38
2022/01/16 04:25:09;;;;;;;36.10;21.30;;;4.60;99.90;;;;;;5068765;28;20909;-38
2022/01/16 04:27:35;;;;;;;38.20;23.03;;;4.60;99.90;;;;;;5068339;28;20435;-38
2022/01/16 04:30:00;;;;;;;41.07;24.33;;;4.50;99.90;;;;;;5067710;28;20431;-38
2022/01/16 04:32:26;;;;;;;34.10;23.17;;;4.50;99.90;;;;;;5058257;28;20228;-39
2022/01/16 04:34:52;;;;;;;37.50;22.30;;;4.40;99.90;;;;;;5068457;28;20181;-41
2022/01/16 04:37:18;;;;;;;36.50;23.10;;;4.30;99.90;;;;;;5068536;28;20292;-39
2022/01/16 04:39:50;;;;;;;38.40;22.40;;;4.30;99.90;;;;;;5067858;28;20664;-39
2022/01/16 04:45:01;;;;;;;39.63;24.23;;;4.20;99.90;;;;;;5068374;28;20499;-38
2022/01/16 04:47:27;;;;;;;40.90;25.10;;;3.80;99.90;;;;;;5057271;28;20440;-38
2022/01/16 04:49:52;;;;;;;39.60;24.67;;;3.70;99.90;;;;;;5065719;28;20710;-39
2022/01/16 04:52:18;;;;;;;39.47;23.67;;;4.10;99.90;;;;;;5067968;28;20613;-39
2022/01/16 04:54:43;;;;;;;46.50;26.00;;;3.80;99.90;;;;;;5067926;28;20189;-39
2022/01/16 04:57:13;;;;;;;43.60;26.10;;;4.00;99.90;;;;;;5067634;28;20227;-39
2022/01/16 04:59:39;;;;;;;43.23;26.30;;;3.90;99.90;;;;;;5066347;28;20206;-38
2022/01/16 05:02:04;;;;;;;38.33;23.93;;;4.00;99.90;;;;;;5061615;28;20432;-38
2022/01/16 05:04:30;;;;;;;43.83;25.83;;;4.00;99.90;;;;;;5067285;28;20514;-38
2022/01/16 05:06:56;;;;;;;42.37;24.20;;;4.10;99.90;;;;;;5066490;28;20651;-38
2022/01/16 05:09:22;;;;;;;40.77;24.77;;;4.00;99.90;;;;;;5067607;28;20272;-38
2022/01/16 05:11:54;;;;;;;39.57;25.60;;;4.00;99.90;;;;;;5066976;28;20522;-39
2022/01/16 05:17:04;;;;;;;50.03;25.40;;;4.10;99.90;;;;;;5074921;28;20479;-39
2022/01/16 05:19:29;;;;;;;42.53;25.73;;;4.30;99.90;;;;;;5059491;28;20455;-40
2022/01/16 05:21:55;;;;;;;45.20;26.43;;;4.20;99.90;;;;;;5066518;28;20189;-39
2022/01/16 05:24:23;;;;;;;44.83;24.67;;;4.10;99.90;;;;;;5067552;28;20663;-39
2022/01/16 05:26:49;;;;;;;46.73;28.07;;;4.10;99.90;;;;;;5067413;28;20216;-39
2022/01/16 05:29:15;;;;;;;43.33;27.90;;;4.20;99.90;;;;;;5067649;28;20526;-39
2022/01/16 05:31:44;;;;;;;48.73;27.90;;;3.90;99.90;;;;;;5063686;28;20523;-38
2022/01/16 05:34:14;;;;;;;48.13;29.00;;;4.10;99.90;;;;;;5061212;28;20567;-39
2022/01/16 05:36:39;;;;;;;43.97;27.97;;;4.10;99.90;;;;;;5067070;28;20427;-39
2022/01/16 05:39:05;;;;;;;49.20;30.13;;;4.20;99.90;;;;;;5067144;28;20459;-39
2022/01/16 05:41:30;;;;;;;48.50;28.40;;;4.10;99.90;;;;;;5066726;28;20191;-39
2022/01/16 05:43:56;;;;;;;49.17;29.77;;;4.20;99.90;;;;;;5067206;28;20227;-40
2022/01/16 05:46:22;;;;;;;49.77;28.20;;;3.90;99.90;;;;;;5067741;28;20671;-39
2022/01/16 05:48:48;;;;;;;53.60;30.43;;;3.90;99.90;;;;;;5054148;28;20250;-38
2022/01/16 05:51:14;;;;;;;50.57;30.43;;;3.90;99.90;;;;;;5066649;28;21009;-39
2022/01/16 05:53:39;;;;;;;53.80;31.70;;;4.00;99.90;;;;;;5067026;28;20333;-39
2022/01/16 05:56:05;;;;;;;55.90;32.20;;;4.20;99.90;;;;;;5065891;28;20623;-39
2022/01/16 05:58:31;;;;;;;49.57;30.93;;;4.00;99.90;;;;;;5066809;28;20232;-38
2022/01/16 06:00:57;;;;;;;58.03;32.97;;;4.10;99.90;;;;;;5066557;28;20609;-38
2022/01/16 06:03:22;;;;;;;64.70;33.67;;;4.20;99.90;;;;;;5055618;28;20190;-38
2022/01/16 06:05:48;;;;;;;57.53;32.33;;;4.10;99.90;;;;;;5065905;28;20185;-39
2022/01/16 06:08:14;;;;;;;60.43;32.80;;;4.00;99.90;;;;;;5067196;28;20192;-39
2022/01/16 06:10:41;;;;;;;59.17;33.40;;;4.00;99.90;;;;;;5066748;28;20559;-39
2022/01/16 06:13:07;;;;;;;54.47;30.27;;;4.20;99.90;;;;;;5067620;28;20484;-39
2022/01/16 06:15:34;;;;;;;58.10;31.30;;;4.30;99.90;;;;;;5086924;28;20419;-40
2022/01/16 06:18:00;;;;;;;53.67;32.30;;;4.00;99.90;;;;;;5067965;28;20562;-38
2022/01/16 06:20:26;;;;;;;57.60;31.30;;;4.40;99.90;;;;;;5064011;28;20419;-38
2022/01/16 06:22:53;;;;;;;58.63;31.40;;;4.10;99.90;;;;;;5066800;28;20491;-38
2022/01/16 06:25:19;;;;;;;54.70;33.10;;;4.20;99.90;;;;;;5066850;28;20506;-39
2022/01/16 06:27:45;;;;;;;55.67;32.57;;;4.10;99.90;;;;;;5066967;28;20431;-38
2022/01/16 06:30:11;;;;;;;57.17;32.50;;;4.10;99.90;;;;;;5066324;28;20432;-39
2022/01/16 06:32:37;;;;;;;55.00;32.83;;;4.20;99.90;;;;;;5059300;28;20259;-38
2022/01/16 06:35:07;;;;;;;58.23;32.60;;;4.10;99.90;;;;;;5062973;28;20499;-39
2022/01/16 06:37:33;;;;;;;55.80;33.00;;;4.30;99.90;;;;;;5066745;28;20451;-38
2022/01/16 06:39:59;;;;;;;57.90;33.27;;;4.10;99.90;;;;;;5066268;28;20957;-39
2022/01/16 06:42:24;;;;;;;58.03;32.37;;;4.30;99.90;;;;;;5066988;28;20431;-39
2022/01/16 06:44:50;;;;;;;56.20;33.03;;;4.40;99.90;;;;;;5066937;28;20280;-38
2022/01/16 06:47:16;;;;;;;59.20;34.70;;;4.40;99.90;;;;;;5063305;28;20745;-38
2022/01/16 06:49:42;;;;;;;58.00;33.40;;;4.50;99.90;;;;;;5057763;28;20473;-40
2022/01/16 06:52:08;;;;;;;59.50;32.73;;;4.50;99.90;;;;;;5066612;28;20428;-39
2022/01/16 06:54:33;;;;;;;57.60;34.10;;;4.30;99.90;;;;;;5066055;28;20243;-39
2022/01/16 06:56:59;;;;;;;60.37;33.80;;;4.30;99.90;;;;;;5066995;28;20212;-40
2022/01/16 06:59:25;;;;;;;60.30;34.07;;;4.20;99.90;;;;;;5066590;28;20714;-38
2022/01/16 07:01:50;;;;;;;55.57;34.83;;;4.20;99.90;;;;;;5065367;28;20257;-39
2022/01/16 07:04:16;;;;;;;67.03;35.20;;;4.10;99.90;;;;;;5057412;28;20193;-38
2022/01/16 07:06:42;;;;;;;56.70;33.43;;;4.20;99.90;;;;;;5061544;28;20189;-39
2022/01/16 07:09:08;;;;;;;70.00;34.50;;;4.20;99.90;;;;;;5067170;28;20438;-41
2022/01/16 07:11:33;;;;;;;53.60;33.77;;;4.10;99.90;;;;;;5068171;28;20193;-39
2022/01/16 07:13:59;;;;;;;58.97;35.20;;;4.20;99.90;;;;;;5078366;28;20618;-42
2022/01/16 07:16:24;;;;;;;54.73;32.97;;;4.10;99.90;;;;;;5089972;28;20215;-42
2022/01/16 07:18:51;;;;;;;55.63;32.80;;;4.30;99.90;;;;;;5066332;28;20213;-38
2022/01/16 07:21:17;;;;;;;57.23;34.27;;;4.30;99.90;;;;;;5069316;28;20238;-39
2022/01/16 07:23:45;;;;;;;55.90;35.07;;;4.20;99.90;;;;;;5069600;28;20435;-40
2022/01/16 07:26:11;;;;;;;56.90;34.47;;;4.30;99.90;;;;;;5069911;28;20192;-39
2022/01/16 07:28:37;;;;;;;55.77;32.00;;;4.20;99.90;;;;;;5069762;28;20450;-39
2022/01/16 07:31:03;;;;;;;54.50;31.57;;;4.20;99.90;;;;;;5068902;28;20447;-38
2022/01/16 07:33:29;;;;;;;58.00;32.20;;;4.30;99.90;;;;;;5060645;28;20192;-39
2022/01/16 07:35:55;;;;;;;50.60;32.63;;;4.30;99.90;;;;;;5069467;28;20427;-39
2022/01/16 07:38:21;;;;;;;47.47;30.20;;;4.10;99.90;;;;;;5066052;28;20821;-39
2022/01/16 07:40:47;;;;;;;58.20;34.70;;;4.20;99.90;;;;;;5062968;28;20185;-39
2022/01/16 07:43:13;;;;;;;62.10;34.20;;;4.20;99.90;;;;;;5069448;28;20427;-40
2022/01/16 07:45:39;;;;;;;57.53;34.77;;;4.30;99.90;;;;;;5063911;28;20640;-38
2022/01/16 07:48:08;;;;;;;50.60;32.00;;;4.30;99.90;;;;;;5061745;28;20440;-38
2022/01/16 07:50:35;;;;;;;50.40;34.30;;;4.30;99.90;;;;;;5063738;28;20446;-39
2022/01/16 07:53:01;;;;;;;54.90;32.17;;;4.40;99.90;;;;;;5069346;28;20439;-41
2022/01/16 07:55:26;;;;;;;57.60;33.67;;;4.30;99.90;;;;;;5069190;28;20443;-38
2022/01/16 07:57:58;;;;;;;54.13;32.87;;;4.60;99.90;;;;;;5068215;28;20240;-39
2022/01/16 08:00:24;;;;;;;63.90;35.00;;;4.40;99.90;;;;;;5066192;28;20420;-39
2022/01/16 08:02:51;;;;;;;53.33;31.53;;;4.40;99.90;;;;;;5065683;28;20940;-39
2022/01/16 08:05:19;;;;;;;54.90;33.93;;;4.50;99.90;;;;;;5059983;28;20435;-39
2022/01/16 08:07:44;;;;;;;60.10;34.00;;;4.10;99.90;;;;;;5068973;28;20808;-39
2022/01/16 08:10:10;;;;;;;56.03;31.93;;;4.10;99.90;;;;;;5066861;28;20435;-39
2022/01/16 08:12:37;;;;;;;57.33;33.60;;;4.20;99.90;;;;;;5068679;28;20582;-39
2022/01/16 08:15:05;;;;;;;61.70;34.57;;;4.20;99.90;;;;;;5083898;28;20521;-38
2022/01/16 08:17:31;;;;;;;55.03;33.13;;;4.40;99.90;;;;;;5073909;28;20471;-39
2022/01/16 08:19:57;;;;;;;54.43;31.33;;;4.40;99.90;;;;;;5059783;28;20500;-40
2022/01/16 08:22:23;;;;;;;54.47;33.43;;;4.50;99.90;;;;;;5068218;28;20562;-39
2022/01/16 08:24:48;;;;;;;54.97;32.30;;;4.60;99.90;;;;;;5066609;28;20181;-39
2022/01/16 08:27:15;;;;;;;54.30;33.10;;;4.30;99.90;;;;;;5068615;28;20200;-40
2022/01/16 08:29:44;;;;;;;51.37;32.40;;;4.40;99.90;;;;;;5070761;28;20180;-39
2022/01/16 08:32:10;;;;;;;56.27;35.67;;;4.50;99.90;;;;;;5088811;28;20788;-39
2022/01/16 08:34:36;;;;;;;60.60;35.63;;;4.60;99.90;;;;;;5063531;28;20459;-39
2022/01/16 08:37:02;;;;;;;53.93;31.90;;;4.20;99.90;;;;;;5068206;28;20422;-39
2022/01/16 08:39:28;;;;;;;56.13;33.00;;;4.50;99.90;;;;;;5068344;28;20474;-40
2022/01/16 08:41:54;;;;;;;59.57;35.80;;;4.40;99.90;;;;;;5069467;28;20641;-41
2022/01/16 08:44:20;;;;;;;56.77;33.80;;;4.30;99.90;;;;;;5062983;28;20563;-39
2022/01/16 08:46:46;;;;;;;62.20;36.37;;;4.40;99.90;;;;;;5068208;28;20411;-40
2022/01/16 08:49:13;;;;;;;53.10;33.77;;;4.40;99.90;;;;;;5063066;28;20197;-40
2022/01/16 08:51:39;;;;;;;57.47;33.57;;;4.30;99.90;;;;;;5066956;28;20423;-39
2022/01/16 08:54:04;;;;;;;55.83;33.33;;;4.40;99.90;;;;;;5067667;28;20794;-43
2022/01/16 08:56:30;;;;;;;60.73;35.83;;;4.40;99.90;;;;;;5067558;28;20212;-39
2022/01/16 08:58:56;;;;;;;59.50;34.93;;;4.40;99.90;;;;;;5084174;28;20212;-39
2022/01/16 09:01:22;;;;;;;55.80;33.70;;;4.30;99.90;;;;;;5085670;28;20796;-42
2022/01/16 09:03:48;;;;;;;52.73;33.10;;;4.40;99.90;;;;;;5073951;28;20184;-39
2022/01/16 09:06:14;;;;;;;57.63;34.77;;;4.60;99.90;;;;;;5062815;28;20271;-39
2022/01/16 09:08:40;;;;;;;52.47;32.47;;;4.30;99.90;;;;;;5067697;28;20197;-39
2022/01/16 09:11:07;;;;;;;55.80;33.50;;;4.50;99.90;;;;;;5065429;28;20431;-39
2022/01/16 09:13:33;;;;;;;55.30;33.47;;;4.50;99.90;;;;;;5064593;28;20193;-39
2022/01/16 09:15:59;;;;;;;53.87;33.50;;;4.50;99.90;;;;;;5066868;28;20958;-39
2022/01/16 09:18:26;;;;;;;55.13;34.20;;;4.50;99.90;;;;;;5063788;28;20532;-38
2022/01/16 09:20:53;;;;;;;48.73;31.80;;;4.40;99.90;;;;;;5059113;28;20184;-42
2022/01/16 09:23:19;;;;;;;56.30;34.97;;;4.60;99.90;;;;;;5066191;28;20431;-38
2022/01/16 09:25:45;;;;;;;52.93;31.60;;;4.70;99.90;;;;;;5067116;28;21008;-39
2022/01/16 09:28:10;;;;;;;50.30;31.53;;;4.90;99.90;;;;;;5065851;28;20462;-43
2022/01/16 09:30:36;;;;;;;49.90;31.90;;;4.50;99.90;;;;;;5073577;28;20181;-38
2022/01/16 09:33:02;;;;;;;51.70;33.47;;;4.70;99.90;;;;;;5066158;28;20651;-39
2022/01/16 09:35:29;;;;;;;49.37;32.10;;;4.60;99.90;;;;;;5056855;28;20702;-42
2022/01/16 09:37:58;;;;;;;54.23;32.03;;;4.60;99.90;;;;;;5067213;28;20476;-39
2022/01/16 09:40:23;;;;;;;56.33;32.53;;;4.60;99.90;;;;;;5065389;28;20866;-40
2022/01/16 09:42:49;;;;;;;49.10;31.57;;;4.70;99.90;;;;;;5070987;28;20422;-38
2022/01/16 09:45:18;;;;;;;51.37;32.97;;;4.80;99.90;;;;;;5066262;28;20272;-38
2022/01/16 09:47:45;;;;;;;47.63;31.70;;;4.60;99.90;;;;;;5065441;28;20196;-39
2022/01/16 09:50:16;;;;;;;45.27;29.77;;;5.00;99.90;;;;;;5061229;28;20798;-39
2022/01/16 09:52:44;;;;;;;46.77;30.97;;;4.80;99.90;;;;;;5064992;28;20431;-40
2022/01/16 09:55:11;;;;;;;46.23;30.73;;;4.80;99.90;;;;;;5064651;28;20471;-38
2022/01/16 09:57:37;;;;;;;49.40;30.27;;;5.00;99.90;;;;;;5060916;28;20471;-40
2022/01/16 10:00:09;;;;;;;45.83;29.87;;;4.80;99.90;;;;;;5059116;28;20522;-40
2022/01/16 10:02:34;;;;;;;46.80;31.27;;;4.80;99.90;;;;;;5066213;28;20522;-41
2022/01/16 10:05:00;;;;;;;46.90;30.40;;;4.90;99.90;;;;;;5053205;28;20536;-40
2022/01/16 10:07:26;;;;;;;50.10;29.87;;;4.90;99.90;;;;;;5065756;28;20246;-39
2022/01/16 10:10:12;;;;;;;48.20;29.23;;;5.20;99.90;;;;;;5065901;28;20285;-39
2022/01/16 10:12:46;;;;;;;47.73;30.27;;;5.20;99.90;;;;;;5066176;28;20185;-39
2022/01/16 10:15:20;;;;;;;45.40;30.17;;;5.10;99.90;;;;;;5082996;28;20765;-41
2022/01/16 10:17:48;;;;;;;46.47;29.97;;;5.50;99.90;;;;;;5086227;28;20460;-39
2022/01/16 10:20:18;;;;;;;44.60;28.07;;;5.50;99.90;;;;;;5064329;28;20463;-39
2022/01/16 10:22:46;;;;;;;43.93;30.60;;;6.00;99.90;;;;;;5066123;28;21291;-40
2022/01/16 10:25:15;;;;;;;39.83;27.00;;;6.20;99.90;;;;;;5065571;28;20431;-44
2022/01/16 10:27:44;;;;;;;40.53;25.87;;;6.30;99.90;;;;;;5065852;28;20420;-41
2022/01/16 10:30:14;;;;;;;40.23;26.30;;;7.00;99.90;;;;;;5059280;28;20515;-39
2022/01/16 10:32:44;;;;;;;40.17;26.27;;;7.00;99.90;;;;;;5065341;28;20426;-41
2022/01/16 10:35:15;;;;;;;36.47;25.77;;;7.60;99.90;;;;;;5060154;28;20957;-44
2022/01/16 10:37:43;;;;;;;34.10;24.27;;;8.10;99.90;;;;;;5065910;28;20463;-40
2022/01/16 10:40:16;;;;;;;40.80;25.60;;;8.50;99.90;;;;;;5066142;28;20424;-40
2022/01/16 10:42:52;;;;;;;38.13;25.10;;;8.90;99.90;;;;;;5064294;28;20458;-39
2022/01/16 10:45:21;;;;;;;37.27;24.73;;;9.20;99.90;;;;;;5070024;28;20762;-39
2022/01/16 10:47:51;;;;;;;29.07;22.57;;;9.10;99.90;;;;;;5069605;28;20454;-39
2022/01/16 10:50:22;;;;;;;33.10;24.40;;;9.30;99.90;;;;;;5064968;28;20836;-38
2022/01/16 10:52:52;;;;;;;31.47;22.30;;;9.00;99.90;;;;;;5070468;28;20448;-38
2022/01/16 10:55:20;;;;;;;30.73;23.13;;;9.20;99.90;;;;;;5069345;28;20510;-38
2022/01/16 10:57:46;;;;;;;34.10;23.27;;;9.10;99.90;;;;;;5069442;28;20454;-38
2022/01/16 11:00:15;;;;;;;36.17;24.10;;;9.70;99.90;;;;;;5069186;28;20435;-39
2022/01/16 11:02:44;;;;;;;31.77;22.70;;;9.60;99.90;;;;;;5068009;28;20181;-39
2022/01/16 11:05:33;;;;;;;31.87;22.53;;;9.60;99.90;;;;;;5063943;28;20427;-39
2022/01/16 11:08:03;;;;;;;30.73;21.80;;;9.90;99.90;;;;;;5068697;28;20776;-38
2022/01/16 11:10:59;;;;;;;34.73;23.67;;;9.90;99.90;;;;;;5069363;28;20773;-38
2022/01/16 11:13:29;;;;;;;29.73;22.77;;;9.70;99.90;;;;;;5062007;28;20439;-39
2022/01/16 11:15:58;;;;;;;29.93;22.70;;;10.10;99.90;;;;;;5089099;28;20451;-38
2022/01/16 11:18:25;;;;;;;34.20;23.40;;;9.40;99.90;;;;;;5089854;28;20786;-39
2022/01/16 11:21:07;;;;;;;33.17;24.07;;;9.30;99.90;;;;;;5067611;28;20435;-39
2022/01/16 11:26:26;;;;;;;34.90;22.43;;;8.80;99.90;;;;;;5043909;28;20459;-38
2022/01/16 11:28:56;;;;;;;30.97;22.43;;;9.30;99.90;;;;;;5067244;28;20432;-38
2022/01/16 11:31:22;;;;;;;35.07;22.73;;;9.20;99.90;;;;;;5068258;28;20426;-38
2022/01/16 11:33:48;;;;;;;31.73;23.10;;;9.40;99.90;;;;;;5068842;28;20432;-38
2022/01/16 11:36:17;;;;;;;31.90;22.30;;;9.40;99.90;;;;;;5060273;28;21007;-38
2022/01/16 11:38:53;;;;;;;31.40;23.00;;;9.30;99.90;;;;;;5067330;28;20474;-38
2022/01/16 11:41:30;;;;;;;38.67;24.93;;;9.00;99.90;;;;;;5067471;28;20454;-37
2022/01/16 11:43:56;;;;;;;31.80;22.90;;;9.20;99.90;;;;;;5066816;28;20976;-38
2022/01/16 11:46:23;;;;;;;34.40;23.93;;;9.20;99.90;;;;;;5076615;28;20418;-38
2022/01/16 11:49:03;;;;;;;34.30;23.40;;;9.20;99.90;;;;;;5068709;28;20805;-39
2022/01/16 11:51:35;;;;;;;34.50;24.07;;;9.60;99.90;;;;;;5066140;28;20924;-39
2022/01/16 11:54:08;;;;;;;38.27;25.30;;;9.70;99.90;;;;;;5067987;28;20724;-39
2022/01/16 11:56:42;;;;;;;30.67;23.10;;;9.60;99.90;;;;;;5063394;28;20475;-37
2022/01/16 11:59:19;;;;;;;34.13;25.43;;;9.90;99.90;;;;;;5069625;28;20494;-39
2022/01/16 12:02:18;;;;;;;34.77;24.30;;;10.00;99.90;;;;;;5065389;28;20475;-39
2022/01/16 12:04:44;;;;;;;37.43;22.87;;;10.30;99.90;;;;;;5000383;28;20444;-38
2022/01/16 12:07:13;;;;;;;36.17;24.53;;;10.20;99.90;;;;;;5059071;28;20446;-38
2022/01/16 12:12:12;;;;;;;31.87;22.27;;;10.50;99.90;;;;;;5067252;28;20482;-40
2022/01/16 12:15:02;;;;;;;35.10;25.00;;;10.60;99.90;;;;;;5080032;28;20513;-38
2022/01/16 12:17:41;;;;;;;33.93;23.83;;;10.90;99.90;;;;;;5087810;28;20449;-38
2022/01/16 12:20:13;;;;;;;37.10;24.10;;;11.20;99.90;;;;;;5076374;28;20771;-38
2022/01/16 12:22:42;;;;;;;39.70;26.77;;;10.70;99.90;;;;;;5062085;28;20419;-38
2022/01/16 12:25:29;;;;;;;33.57;24.10;;;10.30;99.90;;;;;;5067613;28;20428;-38
2022/01/16 12:28:05;;;;;;;37.67;24.20;;;10.40;99.90;;;;;;5067899;28;20788;-39
2022/01/16 12:30:38;;;;;;;34.83;24.27;;;10.30;99.90;;;;;;5068551;28;20423;-39
2022/01/16 12:33:15;;;;;;;34.87;24.57;;;10.60;99.90;;;;;;5068557;28;20427;-38
2022/01/16 12:35:41;;;;;;;39.90;26.27;;;10.50;99.90;;;;;;5061791;28;20500;-39
2022/01/16 12:38:18;;;;;;;36.70;25.30;;;10.70;99.90;;;;;;5068357;28;20788;-38
2022/01/16 12:40:51;;;;;;;41.30;26.57;;;10.10;99.90;;;;;;5078367;28;20586;-38
2022/01/16 12:43:25;;;;;;;39.73;24.60;;;9.90;99.90;;;;;;5086884;28;20430;-39
2022/01/16 12:45:51;;;;;;;41.07;27.27;;;10.10;99.90;;;;;;5068775;28;20423;-41
2022/01/16 12:48:17;;;;;;;36.60;25.10;;;10.30;99.90;;;;;;5068428;28;20437;-38
2022/01/16 12:50:43;;;;;;;42.77;25.20;;;10.20;99.90;;;;;;5061545;28;20193;-40
2022/01/16 12:53:08;;;;;;;35.93;23.40;;;9.90;99.90;;;;;;5063379;28;20274;-41
2022/01/16 12:55:35;;;;;;;37.23;24.50;;;10.20;99.90;;;;;;5066787;28;20427;-43
2022/01/16 12:58:27;;;;;;;41.70;27.27;;;10.30;99.90;;;;;;5067923;28;20248;-39
2022/01/16 13:01:02;;;;;;;39.17;24.17;;;9.80;99.90;;;;;;5052263;28;20427;-38
2022/01/16 13:03:29;;;;;;;35.67;23.97;;;9.90;99.90;;;;;;5068063;28;20423;-38
2022/01/16 13:06:22;;;;;;;40.40;25.20;;;10.00;99.90;;;;;;5063308;28;20684;-39
2022/01/16 13:09:08;;;;;;;41.70;26.00;;;10.20;99.90;;;;;;5065302;28;20423;-40
2022/01/16 13:11:40;;;;;;;38.07;23.27;;;10.10;99.90;;;;;;5067923;28;20431;-39
2022/01/16 13:14:08;;;;;;;38.13;25.93;;;10.00;99.90;;;;;;5069384;28;20437;-41
2022/01/16 13:16:39;;;;;;;41.10;24.63;;;9.60;99.90;;;;;;5081886;28;20426;-39
2022/01/16 13:19:07;;;;;;;33.37;23.93;;;9.80;99.90;;;;;;5088067;28;20477;-38
2022/01/16 13:24:34;;;;;;;34.87;22.83;;;9.90;99.90;;;;;;5058012;28;20939;-39
2022/01/16 13:27:03;;;;;;;35.67;23.13;;;10.00;99.90;;;;;;5055171;28;20431;-39